Time,TemperatureF,DewpointF,PressureIn,WindDirection,WindDirectionDegrees,WindSpeedMPH,WindSpeedGustMPH,Humidity,HourlyPrecipIn,Conditions,Clouds,dailyrainin,SolarRadiationWatts/m^2,SoftwareType,DateUTC
2013-05-16 00:05:00,55.9,40.4,29.71,SSW,207,6.0,6.0,56,0.00,,,0.00,0,Wunderground v.1.15,2013-05-16 04:05:00,
2013-05-16 00:15:00,55.6,39.7,29.70,SW,216,6.0,6.0,55,0.00,,,0.00,0,Wunderground v.1.15,2013-05-16 04:15:00,
2013-05-16 00:20:00,55.5,39.6,29.70,WSW,241,5.0,6.0,55,0.00,,,0.00,0,Wunderground v.1.15,2013-05-16 04:20:00,
2013-05-16 00:25:00,55.5,39.6,29.69,SSW,205,5.0,6.0,55,0.00,,,0.00,0,Wunderground v.1.15,2013-05-16 04:25:00,
2013-05-16 00:35:00,55.3,38.9,29.69,WSW,244,5.0,7.0,54,0.00,,,0.00,0,Wunderground v.1.15,2013-05-16 04:35:00,
2013-05-16 00:40:00,55.3,38.9,29.69,SW,221,6.0,8.0,54,0.00,,,0.00,0,Wunderground v.1.15,2013-05-16 04:40:00,
2013-05-16 00:50:00,55.2,38.4,29.70,SW,229,6.0,10.0,53,0.00,,,0.00,0,Wunderground v.1.15,2013-05-16 04:50:00,
2013-05-16 01:00:00,55.0,38.2,29.70,SSW,200,7.0,10.0,53,0.00,,,0.00,0,Wunderground v.1.15,2013-05-16 05:00:00,
2013-05-16 01:05:00,55.0,38.2,29.70,SW,214,6.0,10.0,53,0.00,,,0.00,0,Wunderground v.1.15,2013-05-16 05:05:00,
2013-05-16 01:10:00,54.9,37.6,29.70,SW,229,6.0,8.0,52,0.00,,,0.00,0,Wunderground v.1.15,2013-05-16 05:10:00,
2013-05-16 01:15:00,54.8,37.5,29.70,SSW,209,6.0,8.0,52,0.00,,,0.00,0,Wunderground v.1.15,2013-05-16 05:15:00,
2013-05-16 01:25:00,54.9,37.6,29.69,West,273,4.0,6.0,52,0.00,,,0.00,0,Wunderground v.1.15,2013-05-16 05:25:00,
2013-05-16 01:35:00,55.3,37.5,29.69,WSW,254,4.0,4.0,51,0.00,,,0.00,0,Wunderground v.1.15,2013-05-16 05:35:00,
2013-05-16 01:40:00,55.3,37.5,29.69,West,262,2.0,2.0,51,0.00,,,0.00,0,Wunderground v.1.15,2013-05-16 05:40:00,
2013-05-16 01:50:00,55.1,36.8,29.69,West,262,0.0,0.0,50,0.00,,,0.00,0,Wunderground v.1.15,2013-05-16 05:50:00,
2013-05-16 01:55:00,54.9,37.1,29.69,West,262,0.0,0.0,51,0.00,,,0.00,0,Wunderground v.1.15,2013-05-16 05:55:00,
2013-05-16 02:05:00,54.6,36.8,29.69,West,262,0.0,1.0,51,0.00,,,0.00,0,Wunderground v.1.15,2013-05-16 06:05:00,
2013-05-16 02:15:00,54.3,36.5,29.69,West,262,1.0,1.0,51,0.00,,,0.00,0,Wunderground v.1.15,2013-05-16 06:15:00,
2013-05-16 02:25:00,54.4,36.1,29.68,West,262,1.0,2.0,50,0.00,,,0.00,0,Wunderground v.1.15,2013-05-16 06:25:00,
2013-05-16 02:35:00,53.8,36.1,29.69,West,262,0.0,1.0,51,0.00,,,0.00,0,Wunderground v.1.15,2013-05-16 06:35:00,
2013-05-16 02:45:00,53.3,35.6,29.69,NNW,340,3.0,3.0,51,0.00,,,0.00,0,Wunderground v.1.15,2013-05-16 06:45:00,
2013-05-16 02:50:00,53.4,35.7,29.69,NW,321,3.0,3.0,51,0.00,,,0.00,0,Wunderground v.1.15,2013-05-16 06:50:00,
2013-05-16 03:00:00,53.5,35.8,29.69,North,360,3.0,4.0,51,0.00,,,0.00,0,Wunderground v.1.15,2013-05-16 07:00:00,
2013-05-16 03:10:00,54.9,36.1,29.69,NNW,348,4.0,7.0,49,0.00,,,0.00,0,Wunderground v.1.15,2013-05-16 07:10:00,
2013-05-16 03:20:00,55.9,36.5,29.69,North,353,5.0,8.0,48,0.00,,,0.00,0,Wunderground v.1.15,2013-05-16 07:20:00,
2013-05-16 03:30:00,56.0,36.6,29.70,NNW,344,6.0,7.0,48,0.00,,,0.00,0,Wunderground v.1.15,2013-05-16 07:30:00,
2013-05-16 03:35:00,55.9,36.5,29.70,North,2,6.0,7.0,48,0.00,,,0.00,0,Wunderground v.1.15,2013-05-16 07:35:00,
2013-05-16 03:40:00,55.8,36.4,29.70,North,9,6.0,6.0,48,0.00,,,0.00,0,Wunderground v.1.15,2013-05-16 07:40:00,
2013-05-16 03:50:00,55.6,36.2,29.69,NNE,22,5.0,5.0,48,0.00,,,0.00,0,Wunderground v.1.15,2013-05-16 07:50:00,
2013-05-16 03:55:00,55.4,36.5,29.70,NNE,14,4.0,5.0,49,0.00,,,0.00,0,Wunderground v.1.15,2013-05-16 07:55:00,
2013-05-16 04:00:00,55.3,36.5,29.70,NNE,15,3.0,3.0,49,0.00,,,0.00,0,Wunderground v.1.15,2013-05-16 08:00:00,
2013-05-16 04:10:00,55.0,36.2,29.70,NNE,13,2.0,2.0,49,0.00,,,0.00,0,Wunderground v.1.15,2013-05-16 08:10:00,
2013-05-16 04:15:00,54.9,36.1,29.70,NNE,13,1.0,2.0,49,0.00,,,0.00,0,Wunderground v.1.15,2013-05-16 08:15:00,
2013-05-16 04:25:00,54.6,35.8,29.70,NNE,19,3.0,3.0,49,0.00,,,0.00,0,Wunderground v.1.15,2013-05-16 08:25:00,
2013-05-16 04:35:00,54.6,35.8,29.70,NNE,13,4.0,4.0,49,0.00,,,0.00,0,Wunderground v.1.15,2013-05-16 08:35:00,
2013-05-16 04:45:00,54.4,35.6,29.69,North,6,4.0,4.0,49,0.00,,,0.00,0,Wunderground v.1.15,2013-05-16 08:45:00,
2013-05-16 04:55:00,54.2,35.4,29.69,North,357,4.0,5.0,49,0.00,,,0.00,0,Wunderground v.1.15,2013-05-16 08:55:00,
2013-05-16 05:05:00,54.1,35.3,29.69,North,352,4.0,4.0,49,0.00,,,0.00,0,Wunderground v.1.15,2013-05-16 09:05:00,
2013-05-16 05:15:00,54.1,35.3,29.70,NNW,341,3.0,4.0,49,0.00,,,0.00,0,Wunderground v.1.15,2013-05-16 09:15:00,
2013-05-16 05:20:00,53.9,35.2,29.70,North,352,3.0,4.0,49,0.00,,,0.00,0,Wunderground v.1.15,2013-05-16 09:20:00,
2013-05-16 05:25:00,53.9,35.2,29.70,North,358,3.0,5.0,49,0.00,,,0.00,0,Wunderground v.1.15,2013-05-16 09:25:00,
2013-05-16 05:35:00,54.2,34.9,29.71,NNW,340,3.0,4.0,48,0.00,,,0.00,5,Wunderground v.1.15,2013-05-16 09:35:00,
2013-05-16 05:40:00,54.4,35.1,29.71,NNW,345,2.0,2.0,48,0.00,,,0.00,9,Wunderground v.1.15,2013-05-16 09:40:00,
2013-05-16 05:50:00,54.4,35.1,29.71,NNW,346,2.0,2.0,48,0.00,,,0.00,16,Wunderground v.1.15,2013-05-16 09:50:00,
2013-05-16 06:00:00,54.4,35.1,29.72,NNW,346,0.0,0.0,48,0.00,,,0.00,28,Wunderground v.1.15,2013-05-16 10:00:00,
2013-05-16 06:05:00,54.4,35.1,29.72,NNW,346,0.0,0.0,48,0.00,,,0.00,30,Wunderground v.1.15,2013-05-16 10:05:00,
2013-05-16 06:10:00,54.4,35.1,29.72,NNW,346,0.0,0.0,48,0.00,,,0.00,32,Wunderground v.1.15,2013-05-16 10:10:00,
2013-05-16 06:20:00,54.5,35.2,29.73,NNW,346,0.0,0.0,48,0.00,,,0.00,42,Wunderground v.1.15,2013-05-16 10:20:00,
2013-05-16 06:30:00,54.5,35.2,29.73,NNW,346,0.0,0.0,48,0.00,,,0.00,132,Wunderground v.1.15,2013-05-16 10:30:00,
2013-05-16 06:35:00,54.8,35.5,29.73,NNW,346,0.0,1.0,48,0.00,,,0.00,181,Wunderground v.1.15,2013-05-16 10:35:00,
2013-05-16 06:45:00,55.9,35.9,29.74,NNW,336,1.0,1.0,47,0.00,,,0.00,114,Wunderground v.1.15,2013-05-16 10:45:00,
2013-05-16 06:55:00,56.6,36.6,29.75,SW,219,3.0,4.0,47,0.00,,,0.00,102,Wunderground v.1.15,2013-05-16 10:55:00,
2013-05-16 07:05:00,56.6,36.6,29.75,WSW,253,3.0,5.0,47,0.00,,,0.00,309,Wunderground v.1.15,2013-05-16 11:05:00,
2013-05-16 07:15:00,57.2,37.1,29.75,West,264,2.0,2.0,47,0.00,,,0.00,204,Wunderground v.1.15,2013-05-16 11:15:00,
2013-05-16 07:25:00,57.7,37.6,29.75,West,264,2.0,2.0,47,0.00,,,0.00,156,Wunderground v.1.15,2013-05-16 11:25:00,
2013-05-16 07:30:00,57.8,37.7,29.75,West,264,2.0,2.0,47,0.00,,,0.00,135,Wunderground v.1.15,2013-05-16 11:30:00,
2013-05-16 07:40:00,58.0,38.4,29.75,West,264,0.0,0.0,48,0.00,,,0.00,195,Wunderground v.1.15,2013-05-16 11:40:00,
2013-05-16 07:50:00,57.9,39.4,29.76,WSW,256,2.0,2.0,50,0.00,,,0.00,200,Wunderground v.1.15,2013-05-16 11:50:00,
2013-05-16 07:55:00,58.1,39.5,29.76,WSW,250,3.0,4.0,50,0.00,,,0.00,206,Wunderground v.1.15,2013-05-16 11:55:00,
2013-05-16 08:05:00,58.5,40.4,29.77,WSW,244,2.0,2.0,51,0.00,,,0.00,281,Wunderground v.1.15,2013-05-16 12:05:00,
2013-05-16 08:10:00,58.9,40.8,29.77,WSW,244,1.0,2.0,51,0.00,,,0.00,264,Wunderground v.1.15,2013-05-16 12:10:00,
2013-05-16 08:20:00,59.2,42.6,29.77,WSW,244,3.0,3.0,54,0.00,,,0.00,262,Wunderground v.1.15,2013-05-16 12:20:00,
2013-05-16 08:30:00,59.8,42.1,29.78,WSW,240,3.0,3.0,52,0.00,,,0.00,232,Wunderground v.1.15,2013-05-16 12:30:00,
2013-05-16 08:40:00,59.1,42.0,29.78,SSW,210,4.0,4.0,53,0.00,,,0.00,183,Wunderground v.1.15,2013-05-16 12:40:00,
2013-05-16 08:45:00,59.1,42.0,29.78,SW,219,3.0,4.0,53,0.00,,,0.00,195,Wunderground v.1.15,2013-05-16 12:45:00,
2013-05-16 08:55:00,58.2,41.6,29.78,SW,229,5.0,8.0,54,0.00,,,0.00,241,Wunderground v.1.15,2013-05-16 12:55:00,
2013-05-16 09:00:00,57.7,41.2,29.78,SW,226,5.0,5.0,54,0.00,,,0.00,264,Wunderground v.1.15,2013-05-16 13:00:00,
2013-05-16 09:10:00,58.0,41.0,29.79,SW,236,4.0,6.0,53,0.00,,,0.00,404,Wunderground v.1.15,2013-05-16 13:10:00,
2013-05-16 09:15:00,58.0,41.4,29.79,SW,227,5.0,6.0,54,0.00,,,0.00,355,Wunderground v.1.15,2013-05-16 13:15:00,
2013-05-16 09:25:00,58.0,41.4,29.79,SW,224,5.0,7.0,54,0.00,,,0.00,313,Wunderground v.1.15,2013-05-16 13:25:00,
2013-05-16 09:35:00,58.6,41.5,29.79,SW,223,4.0,5.0,53,0.00,,,0.00,202,Wunderground v.1.15,2013-05-16 13:35:00,
2013-05-16 09:40:00,59.0,41.9,29.78,SW,224,2.0,2.0,53,0.00,,,0.00,248,Wunderground v.1.15,2013-05-16 13:40:00,
2013-05-16 09:45:00,59.3,42.6,29.78,SW,223,0.0,2.0,54,0.00,,,0.00,144,Wunderground v.1.15,2013-05-16 13:45:00,
2013-05-16 09:55:00,59.6,43.4,29.78,SW,223,0.0,0.0,55,0.00,,,0.00,206,Wunderground v.1.15,2013-05-16 13:55:00,
2013-05-16 10:00:00,59.5,43.8,29.79,SSW,202,1.0,4.0,56,0.00,,,0.00,179,Wunderground v.1.15,2013-05-16 14:00:00,
2013-05-16 10:10:00,59.3,44.1,29.81,SW,226,5.0,7.0,57,0.00,,,0.00,183,Wunderground v.1.15,2013-05-16 14:10:00,
2013-05-16 10:20:00,58.0,43.3,29.80,SW,219,6.0,6.0,58,0.00,,,0.00,172,Wunderground v.1.15,2013-05-16 14:20:00,
2013-05-16 10:25:00,58.0,42.8,29.80,WSW,240,5.0,6.0,57,0.00,,,0.00,195,Wunderground v.1.15,2013-05-16 14:25:00,
2013-05-16 10:35:00,58.6,42.5,29.80,SW,219,4.0,6.0,55,0.00,,,0.00,225,Wunderground v.1.15,2013-05-16 14:35:00,
2013-05-16 10:40:00,58.9,42.8,29.80,SW,220,4.0,5.0,55,0.00,,,0.00,225,Wunderground v.1.15,2013-05-16 14:40:00,
2013-05-16 10:45:00,59.2,42.6,29.81,SW,225,6.0,7.0,54,0.00,,,0.00,216,Wunderground v.1.15,2013-05-16 14:45:00,
2013-05-16 10:55:00,59.3,43.1,29.81,SW,236,7.0,10.0,55,0.00,,,0.00,253,Wunderground v.1.15,2013-05-16 14:55:00,
2013-05-16 11:05:00,59.4,43.7,29.81,WSW,237,7.0,12.0,56,0.00,,,0.00,287,Wunderground v.1.15,2013-05-16 15:05:00,
2013-05-16 11:15:00,59.0,44.2,29.80,SW,223,6.0,7.0,58,0.00,,,0.00,288,Wunderground v.1.15,2013-05-16 15:15:00,
2013-05-16 11:40:00,59.5,45.6,29.77,SW,229,4.0,4.0,60,0.00,,,0.00,401,Wunderground v.1.15,2013-05-16 15:40:00,
2013-05-16 11:50:00,60.0,46.9,29.78,SSW,209,3.0,3.0,62,0.00,,,0.00,482,Wunderground v.1.15,2013-05-16 15:50:00,
2013-05-16 12:00:00,60.8,48.1,29.78,SW,220,5.0,10.0,63,0.00,,,0.00,578,Wunderground v.1.15,2013-05-16 16:00:00,
2013-05-16 12:05:00,60.8,48.5,29.78,WSW,253,7.0,10.0,64,0.00,,,0.00,830,Wunderground v.1.15,2013-05-16 16:05:00,
2013-05-16 12:15:00,62.0,50.9,29.77,WSW,248,5.0,7.0,67,0.00,,,0.00,1092,Wunderground v.1.15,2013-05-16 16:15:00,
2013-05-16 12:25:00,63.4,53.4,29.77,WSW,245,7.0,7.0,70,0.00,,,0.00,696,Wunderground v.1.15,2013-05-16 16:25:00,
2013-05-16 12:35:00,63.1,53.5,29.77,WSW,248,9.0,9.0,71,0.00,,,0.00,1046,Wunderground v.1.15,2013-05-16 16:35:00,
2013-05-16 12:45:00,63.1,53.5,29.77,WSW,242,10.0,18.0,71,0.00,,,0.00,517,Wunderground v.1.15,2013-05-16 16:45:00,
2013-05-16 12:55:00,63.7,53.7,29.77,WSW,237,9.0,10.0,70,0.00,,,0.00,1035,Wunderground v.1.15,2013-05-16 16:55:00,
2013-05-16 13:05:00,63.1,53.5,29.77,SW,236,9.0,9.0,71,0.00,,,0.00,1011,Wunderground v.1.15,2013-05-16 17:05:00,
2013-05-16 13:15:00,63.7,54.1,29.77,SW,230,7.0,8.0,71,0.00,,,0.00,970,Wunderground v.1.15,2013-05-16 17:15:00,
2013-05-16 13:30:00,64.5,54.5,29.76,SSW,211,7.0,7.0,70,0.00,,,0.00,979,Wunderground v.1.15,2013-05-16 17:30:00,
2013-05-16 13:35:00,64.6,54.2,29.76,WSW,237,8.0,8.0,69,0.00,,,0.00,965,Wunderground v.1.15,2013-05-16 17:35:00,
2013-05-16 13:40:00,64.6,54.6,29.76,WSW,238,8.0,11.0,70,0.00,,,0.00,967,Wunderground v.1.15,2013-05-16 17:40:00,
2013-05-16 13:50:00,64.5,54.1,29.76,WSW,247,9.0,9.0,69,0.00,,,0.00,969,Wunderground v.1.15,2013-05-16 17:50:00,
2013-05-16 14:00:00,64.7,54.3,29.76,WSW,241,9.0,14.0,69,0.00,,,0.00,949,Wunderground v.1.15,2013-05-16 18:00:00,
2013-05-16 14:05:00,64.1,53.7,29.76,WSW,248,11.0,14.0,69,0.00,,,0.00,940,Wunderground v.1.15,2013-05-16 18:05:00,
2013-05-16 14:10:00,64.0,53.6,29.75,SW,234,11.0,11.0,69,0.00,,,0.00,939,Wunderground v.1.15,2013-05-16 18:10:00,
2013-05-16 14:20:00,65.1,55.1,29.75,SW,221,7.0,11.0,70,0.00,,,0.00,930,Wunderground v.1.15,2013-05-16 18:20:00,
2013-05-16 14:30:00,65.4,55.0,29.75,SW,215,7.0,10.0,69,0.00,,,0.00,895,Wunderground v.1.15,2013-05-16 18:30:00,
2013-05-16 14:40:00,64.0,53.6,29.75,West,260,10.0,12.0,69,0.00,,,0.00,865,Wunderground v.1.15,2013-05-16 18:40:00,
2013-05-16 14:50:00,64.8,54.4,29.75,WSW,237,9.0,9.0,69,0.00,,,0.00,854,Wunderground v.1.15,2013-05-16 18:50:00,
2013-05-16 15:00:00,65.4,54.6,29.75,West,259,10.0,10.0,68,0.00,,,0.00,842,Wunderground v.1.15,2013-05-16 19:00:00,
2013-05-16 15:10:00,65.2,54.8,29.75,WNW,284,9.0,9.0,69,0.00,,,0.00,817,Wunderground v.1.15,2013-05-16 19:10:00,
2013-05-16 15:20:00,64.9,54.5,29.75,WSW,252,10.0,20.0,69,0.00,,,0.00,798,Wunderground v.1.15,2013-05-16 19:20:00,
2013-05-16 15:30:00,64.9,54.9,29.74,West,267,10.0,10.0,70,0.00,,,0.00,775,Wunderground v.1.15,2013-05-16 19:30:00,
2013-05-16 15:35:00,65.0,55.0,29.74,SSW,208,10.0,10.0,70,0.00,,,0.00,758,Wunderground v.1.15,2013-05-16 19:35:00,
2013-05-16 15:45:00,65.2,55.2,29.74,SW,225,9.0,13.0,70,0.00,,,0.00,731,Wunderground v.1.15,2013-05-16 19:45:00,
2013-05-16 15:50:00,65.0,55.0,29.74,SW,235,10.0,10.0,70,0.00,,,0.00,719,Wunderground v.1.15,2013-05-16 19:50:00,
2013-05-16 16:00:00,64.4,54.4,29.74,West,275,10.0,10.0,70,0.00,,,0.00,694,Wunderground v.1.15,2013-05-16 20:00:00,
2013-05-16 16:05:00,64.2,54.2,29.74,SW,232,10.0,10.0,70,0.00,,,0.00,680,Wunderground v.1.15,2013-05-16 20:05:00,
2013-05-16 16:15:00,63.7,54.1,29.74,SSW,209,11.0,12.0,71,0.00,,,0.00,652,Wunderground v.1.15,2013-05-16 20:15:00,
2013-05-16 16:25:00,63.1,53.5,29.73,WSW,252,12.0,12.0,71,0.00,,,0.00,628,Wunderground v.1.15,2013-05-16 20:25:00,
2013-05-16 16:35:00,63.7,54.1,29.73,WSW,240,10.0,11.0,71,0.00,,,0.00,598,Wunderground v.1.15,2013-05-16 20:35:00,
2013-05-16 16:45:00,64.0,54.0,29.73,WSW,249,11.0,12.0,70,0.00,,,0.00,568,Wunderground v.1.15,2013-05-16 20:45:00,
2013-05-16 16:50:00,63.8,53.8,29.73,WSW,240,12.0,12.0,70,0.00,,,0.00,554,Wunderground v.1.15,2013-05-16 20:50:00,
2013-05-16 17:00:00,63.8,53.8,29.73,WSW,242,10.0,10.0,70,0.00,,,0.00,524,Wunderground v.1.15,2013-05-16 21:00:00,
2013-05-16 17:10:00,64.9,54.5,29.74,WSW,242,9.0,9.0,69,0.00,,,0.00,490,Wunderground v.1.15,2013-05-16 21:10:00,
2013-05-16 17:20:00,64.0,54.4,29.73,NW,310,11.0,11.0,71,0.00,,,0.00,459,Wunderground v.1.15,2013-05-16 21:20:00,
2013-05-16 17:25:00,64.0,54.4,29.73,West,259,10.0,12.0,71,0.00,,,0.00,443,Wunderground v.1.15,2013-05-16 21:25:00,
2013-05-16 17:35:00,63.4,53.8,29.73,WSW,246,10.0,10.0,71,0.00,,,0.00,411,Wunderground v.1.15,2013-05-16 21:35:00,
2013-05-16 17:40:00,63.0,53.4,29.73,WSW,249,10.0,14.0,71,0.00,,,0.00,394,Wunderground v.1.15,2013-05-16 21:40:00,
2013-05-16 17:50:00,62.9,53.4,29.73,WSW,257,11.0,21.0,71,0.00,,,0.00,364,Wunderground v.1.15,2013-05-16 21:50:00,
2013-05-16 18:00:00,62.6,53.1,29.73,West,259,10.0,10.0,71,0.00,,,0.00,336,Wunderground v.1.15,2013-05-16 22:00:00,
2013-05-16 18:05:00,62.5,53.0,29.73,West,265,9.0,10.0,71,0.00,,,0.00,316,Wunderground v.1.15,2013-05-16 22:05:00,
2013-05-16 18:15:00,62.8,53.3,29.73,West,275,7.0,9.0,71,0.00,,,0.00,283,Wunderground v.1.15,2013-05-16 22:15:00,
2013-05-16 18:25:00,62.1,52.6,29.73,SW,236,8.0,11.0,71,0.00,,,0.00,248,Wunderground v.1.15,2013-05-16 22:25:00,
2013-05-16 18:30:00,61.8,52.3,29.73,SSW,197,7.0,7.0,71,0.00,,,0.00,232,Wunderground v.1.15,2013-05-16 22:30:00,
2013-05-16 18:40:00,61.8,52.3,29.73,WSW,242,8.0,8.0,71,0.00,,,0.00,195,Wunderground v.1.15,2013-05-16 22:40:00,
2013-05-16 18:50:00,61.6,52.1,29.74,WSW,256,8.0,8.0,71,0.00,,,0.00,155,Wunderground v.1.15,2013-05-16 22:50:00,
2013-05-16 18:55:00,61.6,52.1,29.74,NW,326,7.0,8.0,71,0.00,,,0.00,135,Wunderground v.1.15,2013-05-16 22:55:00,
2013-05-16 19:05:00,61.7,52.2,29.74,WSW,246,8.0,8.0,71,0.00,,,0.00,98,Wunderground v.1.15,2013-05-16 23:05:00,
2013-05-16 19:15:00,61.0,51.5,29.74,West,263,11.0,12.0,71,0.00,,,0.00,39,Wunderground v.1.15,2013-05-16 23:15:00,
2013-05-16 19:25:00,60.9,51.4,29.75,SW,236,10.0,11.0,71,0.00,,,0.00,28,Wunderground v.1.15,2013-05-16 23:25:00,
2013-05-16 19:35:00,60.6,50.8,29.75,SW,232,9.0,14.0,70,0.00,,,0.00,21,Wunderground v.1.15,2013-05-16 23:35:00,
2013-05-16 19:45:00,60.7,50.1,29.75,SW,231,9.0,9.0,68,0.00,,,0.00,16,Wunderground v.1.15,2013-05-16 23:45:00,
2013-05-16 19:50:00,60.8,49.8,29.76,SW,214,8.0,10.0,67,0.00,,,0.00,12,Wunderground v.1.15,2013-05-16 23:50:00,
2013-05-16 20:00:00,60.5,49.1,29.76,WSW,255,7.0,7.0,66,0.00,,,0.00,5,Wunderground v.1.15,2013-05-17 00:00:00,
2013-05-16 20:10:00,60.4,49.0,29.76,WSW,241,6.0,7.0,66,0.00,,,0.00,0,Wunderground v.1.15,2013-05-17 00:10:00,
2013-05-16 20:15:00,60.4,48.6,29.76,SW,227,6.0,7.0,65,0.00,,,0.00,0,Wunderground v.1.15,2013-05-17 00:15:00,
2013-05-16 20:25:00,60.3,48.5,29.76,WSW,247,7.0,7.0,65,0.00,,,0.00,0,Wunderground v.1.15,2013-05-17 00:25:00,
2013-05-16 20:35:00,60.2,48.4,29.76,WSW,246,5.0,6.0,65,0.00,,,0.00,0,Wunderground v.1.15,2013-05-17 00:35:00,
2013-05-16 20:45:00,60.3,48.9,29.77,West,262,6.0,6.0,66,0.00,,,0.00,0,Wunderground v.1.15,2013-05-17 00:45:00,
2013-05-16 20:55:00,60.4,49.0,29.77,West,263,7.0,8.0,66,0.00,,,0.00,0,Wunderground v.1.15,2013-05-17 00:55:00,
2013-05-16 21:00:00,60.4,49.4,29.77,West,265,7.0,8.0,67,0.00,,,0.00,0,Wunderground v.1.15,2013-05-17 01:00:00,
2013-05-16 21:10:00,60.3,49.3,29.78,SW,227,5.0,5.0,67,0.00,,,0.00,0,Wunderground v.1.15,2013-05-17 01:10:00,
2013-05-16 21:15:00,60.4,49.8,29.78,SW,230,6.0,7.0,68,0.00,,,0.00,0,Wunderground v.1.15,2013-05-17 01:15:00,
2013-05-16 21:25:00,60.7,50.1,29.78,WSW,242,6.0,8.0,68,0.00,,,0.00,0,Wunderground v.1.15,2013-05-17 01:25:00,
2013-05-16 21:30:00,60.8,50.2,29.78,WSW,237,6.0,6.0,68,0.00,,,0.00,0,Wunderground v.1.15,2013-05-17 01:30:00,
2013-05-16 21:40:00,60.8,50.2,29.78,WSW,243,6.0,6.0,68,0.00,,,0.00,0,Wunderground v.1.15,2013-05-17 01:40:00,
2013-05-16 21:45:00,60.7,49.7,29.78,WSW,249,6.0,12.0,67,0.00,,,0.00,0,Wunderground v.1.15,2013-05-17 01:45:00,
2013-05-16 21:55:00,60.8,49.8,29.78,SW,225,7.0,13.0,67,0.00,,,0.00,0,Wunderground v.1.15,2013-05-17 01:55:00,
2013-05-16 22:00:00,60.7,49.7,29.78,SW,221,7.0,8.0,67,0.00,,,0.00,0,Wunderground v.1.15,2013-05-17 02:00:00,
2013-05-16 22:10:00,60.5,49.1,29.78,SW,231,8.0,11.0,66,0.00,,,0.00,0,Wunderground v.1.15,2013-05-17 02:10:00,
2013-05-16 22:20:00,60.4,48.6,29.78,SW,219,8.0,10.0,65,0.00,,,0.00,0,Wunderground v.1.15,2013-05-17 02:20:00,
2013-05-16 22:25:00,60.5,48.7,29.78,SSW,212,8.0,10.0,65,0.00,,,0.00,0,Wunderground v.1.15,2013-05-17 02:25:00,
2013-05-16 22:35:00,60.4,48.2,29.78,SW,226,9.0,9.0,64,0.00,,,0.00,0,Wunderground v.1.15,2013-05-17 02:35:00,
2013-05-16 22:45:00,60.1,47.5,29.78,SW,232,8.0,8.0,63,0.00,,,0.00,0,Wunderground v.1.15,2013-05-17 02:45:00,
2013-05-16 22:55:00,60.0,46.9,29.78,SW,226,8.0,8.0,62,0.00,,,0.00,0,Wunderground v.1.15,2013-05-17 02:55:00,
2013-05-16 23:00:00,59.9,46.8,29.78,SW,217,8.0,8.0,62,0.00,,,0.00,0,Wunderground v.1.15,2013-05-17 03:00:00,
2013-05-16 23:10:00,59.0,46.0,29.78,WSW,242,7.0,7.0,62,0.00,,,0.00,0,Wunderground v.1.15,2013-05-17 03:10:00,
2013-05-16 23:20:00,58.9,45.0,29.78,SW,233,4.0,4.0,60,0.00,,,0.00,0,Wunderground v.1.15,2013-05-17 03:20:00,
2013-05-16 23:25:00,59.0,44.7,29.78,WSW,247,4.0,4.0,59,0.00,,,0.00,0,Wunderground v.1.15,2013-05-17 03:25:00,
2013-05-16 23:35:00,59.0,44.2,29.78,WSW,251,2.0,3.0,58,0.00,,,0.00,0,Wunderground v.1.15,2013-05-17 03:35:00,
2013-05-16 23:45:00,59.1,43.9,29.79,WSW,239,1.0,2.0,57,0.00,,,0.00,0,Wunderground v.1.15,2013-05-17 03:45:00,
2013-05-16 23:50:00,58.8,44.0,29.80,WNW,290,1.0,2.0,58,0.00,,,0.00,0,Wunderground v.1.15,2013-05-17 03:50:00,